Corbin City, New Jersey
Current Conditions -  °F | °C
As of 8:54 AM on Saturday 25 Oct 2014 (Local Time) from KMIV Reporting Station
Clear Clear  
Wind Chill: 51°   Ceiling: Unl
Heat Index: 51°   Visibility: 10mi
Dew Point: 44°   Wind: 6mph
Humidity: 77%   Direction: 280°W
Pressure: 29.93"   Gusts: NA
Location:  39.2589°N, 74.8124°W
Report Text: KMIV 251254Z AUTO 28005KT 10SM CLR 11/07 A2993 RMK AO2 SLP133 T01060067
Loading
Personal Weather Stations






























Interactive Weather Map New forecast layout! Learn more

10-Day Weather Forecast

Advertisements
Track Severe Weather on mobile